sensor_id;sensor_type;location;lat;lon;timestamp;P1;durP1;ratioP1;P2;durP2;ratioP2
82938;SDS011;72714;52.744;4.900;2023-12-14T00:00:17;15.48;;;7.78;;
82938;SDS011;72714;52.744;4.900;2023-12-14T00:02:43;16.42;;;8.00;;
82938;SDS011;72714;52.744;4.900;2023-12-14T00:05:09;14.63;;;7.75;;
82938;SDS011;72714;52.744;4.900;2023-12-14T00:07:34;15.70;;;7.70;;
82938;SDS011;72714;52.744;4.900;2023-12-14T00:10:00;15.53;;;7.67;;
82938;SDS011;72714;52.744;4.900;2023-12-14T00:12:25;15.97;;;8.10;;
82938;SDS011;72714;52.744;4.900;2023-12-14T00:14:50;17.65;;;8.02;;
82938;SDS011;72714;52.744;4.900;2023-12-14T00:17:16;14.83;;;7.83;;
82938;SDS011;72714;52.744;4.900;2023-12-14T00:19:41;16.40;;;8.30;;
82938;SDS011;72714;52.744;4.900;2023-12-14T00:22:07;17.90;;;8.77;;
82938;SDS011;72714;52.744;4.900;2023-12-14T00:24:33;14.25;;;7.70;;
82938;SDS011;72714;52.744;4.900;2023-12-14T00:26:58;13.10;;;7.73;;
82938;SDS011;72714;52.744;4.900;2023-12-14T00:29:24;13.67;;;7.47;;
82938;SDS011;72714;52.744;4.900;2023-12-14T00:31:49;17.10;;;8.13;;
82938;SDS011;72714;52.744;4.900;2023-12-14T00:34:15;14.97;;;8.00;;
82938;SDS011;72714;52.744;4.900;2023-12-14T00:36:40;16.63;;;7.87;;
82938;SDS011;72714;52.744;4.900;2023-12-14T00:39:05;15.40;;;7.40;;
82938;SDS011;72714;52.744;4.900;2023-12-14T00:41:31;13.10;;;7.70;;
82938;SDS011;72714;52.744;4.900;2023-12-14T00:43:56;11.97;;;6.93;;
82938;SDS011;72714;52.744;4.900;2023-12-14T00:46:22;14.48;;;7.65;;
82938;SDS011;72714;52.744;4.900;2023-12-14T00:48:47;14.30;;;7.77;;
82938;SDS011;72714;52.744;4.900;2023-12-14T00:51:13;13.23;;;7.57;;
82938;SDS011;72714;52.744;4.900;2023-12-14T00:53:38;14.32;;;8.00;;
82938;SDS011;72714;52.744;4.900;2023-12-14T00:56:06;12.23;;;7.00;;
82938;SDS011;72714;52.744;4.900;2023-12-14T00:58:33;14.48;;;7.22;;
82938;SDS011;72714;52.744;4.900;2023-12-14T01:00:58;12.47;;;6.67;;
82938;SDS011;72714;52.744;4.900;2023-12-14T01:03:24;13.30;;;6.67;;
82938;SDS011;72714;52.744;4.900;2023-12-14T01:05:49;14.05;;;7.40;;
82938;SDS011;72714;52.744;4.900;2023-12-14T01:08:14;12.27;;;6.70;;
82938;SDS011;72714;52.744;4.900;2023-12-14T01:10:40;11.93;;;6.40;;
82938;SDS011;72714;52.744;4.900;2023-12-14T01:13:05;12.02;;;6.03;;
82938;SDS011;72714;52.744;4.900;2023-12-14T01:15:31;10.07;;;5.93;;
82938;SDS011;72714;52.744;4.900;2023-12-14T01:17:56;11.53;;;6.40;;
82938;SDS011;72714;52.744;4.900;2023-12-14T01:20:22;10.80;;;5.95;;
82938;SDS011;72714;52.744;4.900;2023-12-14T01:22:47;10.20;;;5.90;;
82938;SDS011;72714;52.744;4.900;2023-12-14T01:25:12;12.20;;;6.30;;
82938;SDS011;72714;52.744;4.900;2023-12-14T01:27:38;13.05;;;6.00;;
82938;SDS011;72714;52.744;4.900;2023-12-14T01:30:03;9.60;;;5.40;;
82938;SDS011;72714;52.744;4.900;2023-12-14T01:32:29;10.82;;;5.53;;
82938;SDS011;72714;52.744;4.900;2023-12-14T01:34:55;10.63;;;5.37;;
82938;SDS011;72714;52.744;4.900;2023-12-14T01:37:20;10.27;;;5.30;;
82938;SDS011;72714;52.744;4.900;2023-12-14T01:39:46;11.43;;;5.10;;
82938;SDS011;72714;52.744;4.900;2023-12-14T01:42:11;10.47;;;4.53;;
82938;SDS011;72714;52.744;4.900;2023-12-14T01:44:36;9.20;;;4.60;;
82938;SDS011;72714;52.744;4.900;2023-12-14T01:47:02;9.10;;;4.17;;
82938;SDS011;72714;52.744;4.900;2023-12-14T01:49:27;6.97;;;4.00;;
82938;SDS011;72714;52.744;4.900;2023-12-14T01:51:53;8.27;;;4.33;;
82938;SDS011;72714;52.744;4.900;2023-12-14T01:54:18;10.87;;;4.40;;
82938;SDS011;72714;52.744;4.900;2023-12-14T01:56:44;10.13;;;4.57;;
82938;SDS011;72714;52.744;4.900;2023-12-14T01:59:11;10.23;;;4.50;;
82938;SDS011;72714;52.744;4.900;2023-12-14T02:04:08;11.15;;;4.85;;
82938;SDS011;72714;52.744;4.900;2023-12-14T02:06:35;10.50;;;4.70;;
82938;SDS011;72714;52.744;4.900;2023-12-14T02:09:01;8.60;;;4.35;;
82938;SDS011;72714;52.744;4.900;2023-12-14T02:11:27;11.30;;;4.85;;
82938;SDS011;72714;52.744;4.900;2023-12-14T02:13:52;9.03;;;4.53;;
82938;SDS011;72714;52.744;4.900;2023-12-14T02:16:19;8.97;;;4.07;;
82938;SDS011;72714;52.744;4.900;2023-12-14T02:18:45;9.57;;;4.38;;
82938;SDS011;72714;52.744;4.900;2023-12-14T02:21:10;9.77;;;4.70;;
82938;SDS011;72714;52.744;4.900;2023-12-14T02:23:42;9.45;;;4.22;;
82938;SDS011;72714;52.744;4.900;2023-12-14T02:26:10;11.13;;;4.47;;
82938;SDS011;72714;52.744;4.900;2023-12-14T02:28:36;10.02;;;4.45;;
82938;SDS011;72714;52.744;4.900;2023-12-14T02:31:02;9.93;;;4.90;;
82938;SDS011;72714;52.744;4.900;2023-12-14T02:33:28;8.67;;;4.20;;
82938;SDS011;72714;52.744;4.900;2023-12-14T02:35:53;11.10;;;4.80;;
82938;SDS011;72714;52.744;4.900;2023-12-14T02:38:18;9.13;;;4.50;;
82938;SDS011;72714;52.744;4.900;2023-12-14T02:40:44;8.00;;;4.17;;
82938;SDS011;72714;52.744;4.900;2023-12-14T02:43:09;11.13;;;4.30;;
82938;SDS011;72714;52.744;4.900;2023-12-14T02:45:35;9.63;;;4.40;;
82938;SDS011;72714;52.744;4.900;2023-12-14T02:48:00;10.87;;;4.77;;
82938;SDS011;72714;52.744;4.900;2023-12-14T02:50:26;8.77;;;4.57;;
82938;SDS011;72714;52.744;4.900;2023-12-14T02:52:51;10.00;;;4.33;;
82938;SDS011;72714;52.744;4.900;2023-12-14T02:55:17;8.00;;;3.90;;
82938;SDS011;72714;52.744;4.900;2023-12-14T02:57:42;9.30;;;4.80;;
82938;SDS011;72714;52.744;4.900;2023-12-14T03:00:08;9.23;;;4.50;;
82938;SDS011;72714;52.744;4.900;2023-12-14T03:02:34;9.40;;;4.35;;
82938;SDS011;72714;52.744;4.900;2023-12-14T03:04:59;9.37;;;4.10;;
82938;SDS011;72714;52.744;4.900;2023-12-14T03:07:24;11.57;;;4.97;;
82938;SDS011;72714;52.744;4.900;2023-12-14T03:09:50;11.55;;;5.15;;
82938;SDS011;72714;52.744;4.900;2023-12-14T03:12:15;10.33;;;5.17;;
82938;SDS011;72714;52.744;4.900;2023-12-14T03:14:41;8.63;;;4.87;;
82938;SDS011;72714;52.744;4.900;2023-12-14T03:17:07;7.93;;;4.53;;
82938;SDS011;72714;52.744;4.900;2023-12-14T03:19:37;9.77;;;4.68;;
82938;SDS011;72714;52.744;4.900;2023-12-14T03:22:06;9.68;;;4.60;;
82938;SDS011;72714;52.744;4.900;2023-12-14T03:24:31;8.48;;;4.82;;
82938;SDS011;72714;52.744;4.900;2023-12-14T03:26:57;8.57;;;5.07;;
82938;SDS011;72714;52.744;4.900;2023-12-14T03:29:22;8.60;;;4.83;;
82938;SDS011;72714;52.744;4.900;2023-12-14T03:31:48;8.80;;;4.90;;
82938;SDS011;72714;52.744;4.900;2023-12-14T03:34:13;8.73;;;5.10;;
82938;SDS011;72714;52.744;4.900;2023-12-14T03:36:39;8.73;;;4.93;;
82938;SDS011;72714;52.744;4.900;2023-12-14T03:39:04;8.53;;;5.00;;
82938;SDS011;72714;52.744;4.900;2023-12-14T03:41:31;10.20;;;5.68;;
82938;SDS011;72714;52.744;4.900;2023-12-14T03:43:57;10.35;;;5.25;;
82938;SDS011;72714;52.744;4.900;2023-12-14T03:46:23;9.75;;;5.18;;
82938;SDS011;72714;52.744;4.900;2023-12-14T03:48:48;10.75;;;5.15;;
82938;SDS011;72714;52.744;4.900;2023-12-14T03:51:17;9.37;;;4.80;;
82938;SDS011;72714;52.744;4.900;2023-12-14T03:53:43;9.85;;;4.70;;
82938;SDS011;72714;52.744;4.900;2023-12-14T03:56:09;7.70;;;3.90;;
82938;SDS011;72714;52.744;4.900;2023-12-14T03:58:34;9.87;;;4.20;;
82938;SDS011;72714;52.744;4.900;2023-12-14T04:00:59;7.60;;;3.90;;
82938;SDS011;72714;52.744;4.900;2023-12-14T04:03:25;8.15;;;4.05;;
82938;SDS011;72714;52.744;4.900;2023-12-14T04:05:50;7.20;;;3.70;;
82938;SDS011;72714;52.744;4.900;2023-12-14T04:08:16;6.87;;;3.30;;
82938;SDS011;72714;52.744;4.900;2023-12-14T04:10:41;6.53;;;3.20;;
82938;SDS011;72714;52.744;4.900;2023-12-14T04:13:07;7.60;;;3.90;;
82938;SDS011;72714;52.744;4.900;2023-12-14T04:15:32;6.40;;;3.70;;
82938;SDS011;72714;52.744;4.900;2023-12-14T04:17:58;7.30;;;3.72;;
82938;SDS011;72714;52.744;4.900;2023-12-14T04:20:23;9.07;;;4.00;;
82938;SDS011;72714;52.744;4.900;2023-12-14T04:22:48;8.73;;;4.70;;
82938;SDS011;72714;52.744;4.900;2023-12-14T04:25:15;10.32;;;4.80;;
82938;SDS011;72714;52.744;4.900;2023-12-14T04:27:40;8.20;;;4.47;;
82938;SDS011;72714;52.744;4.900;2023-12-14T04:30:06;9.27;;;5.07;;
82938;SDS011;72714;52.744;4.900;2023-12-14T04:32:35;10.60;;;5.45;;
82938;SDS011;72714;52.744;4.900;2023-12-14T04:35:02;9.02;;;4.95;;
82938;SDS011;72714;52.744;4.900;2023-12-14T04:37:27;10.38;;;5.13;;
82938;SDS011;72714;52.744;4.900;2023-12-14T04:39:53;8.57;;;4.70;;
82938;SDS011;72714;52.744;4.900;2023-12-14T04:42:18;7.97;;;4.30;;
82938;SDS011;72714;52.744;4.900;2023-12-14T04:44:44;8.60;;;4.60;;
82938;SDS011;72714;52.744;4.900;2023-12-14T04:47:09;8.80;;;4.25;;
82938;SDS011;72714;52.744;4.900;2023-12-14T04:49:35;11.47;;;4.33;;
82938;SDS011;72714;52.744;4.900;2023-12-14T04:52:00;6.27;;;3.70;;
82938;SDS011;72714;52.744;4.900;2023-12-14T04:54:25;7.30;;;3.80;;
82938;SDS011;72714;52.744;4.900;2023-12-14T04:56:51;8.23;;;3.70;;
82938;SDS011;72714;52.744;4.900;2023-12-14T04:59:16;7.17;;;3.40;;
82938;SDS011;72714;52.744;4.900;2023-12-14T05:01:42;9.50;;;4.22;;
82938;SDS011;72714;52.744;4.900;2023-12-14T05:04:07;7.23;;;3.70;;
82938;SDS011;72714;52.744;4.900;2023-12-14T05:06:33;7.50;;;4.10;;
82938;SDS011;72714;52.744;4.900;2023-12-14T05:09:00;8.15;;;3.90;;
82938;SDS011;72714;52.744;4.900;2023-12-14T05:11:29;6.80;;;3.77;;
82938;SDS011;72714;52.744;4.900;2023-12-14T05:13:54;7.17;;;3.87;;
82938;SDS011;72714;52.744;4.900;2023-12-14T05:16:20;8.13;;;4.23;;
82938;SDS011;72714;52.744;4.900;2023-12-14T05:18:45;8.30;;;4.20;;
82938;SDS011;72714;52.744;4.900;2023-12-14T05:21:16;7.93;;;4.20;;
82938;SDS011;72714;52.744;4.900;2023-12-14T05:23:42;7.60;;;3.88;;
82938;SDS011;72714;52.744;4.900;2023-12-14T05:26:08;6.85;;;3.45;;
82938;SDS011;72714;52.744;4.900;2023-12-14T05:28:33;9.47;;;4.13;;
82938;SDS011;72714;52.744;4.900;2023-12-14T05:31:00;8.38;;;3.95;;
82938;SDS011;72714;52.744;4.900;2023-12-14T05:33:25;7.88;;;3.75;;
82938;SDS011;72714;52.744;4.900;2023-12-14T05:35:51;7.65;;;3.90;;
82938;SDS011;72714;52.744;4.900;2023-12-14T05:38:16;7.47;;;4.00;;
82938;SDS011;72714;52.744;4.900;2023-12-14T05:40:42;7.27;;;4.27;;
82938;SDS011;72714;52.744;4.900;2023-12-14T05:43:08;7.13;;;4.15;;
82938;SDS011;72714;52.744;4.900;2023-12-14T05:45:34;8.50;;;4.60;;
82938;SDS011;72714;52.744;4.900;2023-12-14T05:47:59;9.27;;;4.33;;
82938;SDS011;72714;52.744;4.900;2023-12-14T05:50:24;7.85;;;4.53;;
82938;SDS011;72714;52.744;4.900;2023-12-14T05:52:50;7.83;;;4.50;;
82938;SDS011;72714;52.744;4.900;2023-12-14T05:55:16;8.37;;;4.17;;
82938;SDS011;72714;52.744;4.900;2023-12-14T05:57:47;8.23;;;4.72;;
82938;SDS011;72714;52.744;4.900;2023-12-14T06:00:13;8.25;;;4.80;;
82938;SDS011;72714;52.744;4.900;2023-12-14T06:02:38;7.35;;;4.65;;
82938;SDS011;72714;52.744;4.900;2023-12-14T06:05:05;7.67;;;5.10;;
82938;SDS011;72714;52.744;4.900;2023-12-14T06:07:31;9.05;;;5.25;;
82938;SDS011;72714;52.744;4.900;2023-12-14T06:09:57;8.55;;;5.20;;
82938;SDS011;72714;52.744;4.900;2023-12-14T06:12:22;9.85;;;5.13;;
82938;SDS011;72714;52.744;4.900;2023-12-14T06:14:48;10.50;;;5.13;;
82938;SDS011;72714;52.744;4.900;2023-12-14T06:17:15;10.20;;;5.85;;
82938;SDS011;72714;52.744;4.900;2023-12-14T06:19:40;11.30;;;5.90;;
82938;SDS011;72714;52.744;4.900;2023-12-14T06:22:06;10.70;;;5.93;;
82938;SDS011;72714;52.744;4.900;2023-12-14T06:24:31;10.43;;;6.03;;
82938;SDS011;72714;52.744;4.900;2023-12-14T06:26:57;9.80;;;5.23;;
82938;SDS011;72714;52.744;4.900;2023-12-14T06:29:22;10.83;;;5.77;;
82938;SDS011;72714;52.744;4.900;2023-12-14T06:31:48;9.80;;;5.93;;
82938;SDS011;72714;52.744;4.900;2023-12-14T06:34:13;11.30;;;6.07;;
82938;SDS011;72714;52.744;4.900;2023-12-14T06:36:41;11.23;;;6.40;;
82938;SDS011;72714;52.744;4.900;2023-12-14T06:39:08;10.63;;;6.07;;
82938;SDS011;72714;52.744;4.900;2023-12-14T06:41:34;12.55;;;6.43;;
82938;SDS011;72714;52.744;4.900;2023-12-14T06:44:00;10.85;;;6.07;;
82938;SDS011;72714;52.744;4.900;2023-12-14T06:46:25;12.40;;;6.50;;
82938;SDS011;72714;52.744;4.900;2023-12-14T06:48:51;10.73;;;5.90;;
82938;SDS011;72714;52.744;4.900;2023-12-14T06:51:16;10.25;;;6.00;;
82938;SDS011;72714;52.744;4.900;2023-12-14T06:53:42;12.73;;;6.80;;
82938;SDS011;72714;52.744;4.900;2023-12-14T06:56:08;13.27;;;6.60;;
82938;SDS011;72714;52.744;4.900;2023-12-14T06:58:36;11.80;;;6.15;;
82938;SDS011;72714;52.744;4.900;2023-12-14T07:01:02;12.68;;;6.50;;
82938;SDS011;72714;52.744;4.900;2023-12-14T07:03:28;11.93;;;6.60;;
82938;SDS011;72714;52.744;4.900;2023-12-14T07:05:53;11.10;;;6.30;;
82938;SDS011;72714;52.744;4.900;2023-12-14T07:08:19;11.23;;;6.47;;
82938;SDS011;72714;52.744;4.900;2023-12-14T07:10:44;10.35;;;6.68;;
82938;SDS011;72714;52.744;4.900;2023-12-14T07:13:10;10.47;;;6.50;;
82938;SDS011;72714;52.744;4.900;2023-12-14T07:15:35;11.53;;;7.03;;
82938;SDS011;72714;52.744;4.900;2023-12-14T07:18:01;10.23;;;6.53;;
82938;SDS011;72714;52.744;4.900;2023-12-14T07:20:27;10.95;;;6.90;;
82938;SDS011;72714;52.744;4.900;2023-12-14T07:22:52;12.45;;;6.93;;
82938;SDS011;72714;52.744;4.900;2023-12-14T07:25:18;9.00;;;5.60;;
82938;SDS011;72714;52.744;4.900;2023-12-14T07:27:43;9.93;;;6.10;;
82938;SDS011;72714;52.744;4.900;2023-12-14T07:30:09;11.47;;;6.33;;
82938;SDS011;72714;52.744;4.900;2023-12-14T07:32:35;11.13;;;6.80;;
82938;SDS011;72714;52.744;4.900;2023-12-14T07:35:00;10.47;;;6.47;;
82938;SDS011;72714;52.744;4.900;2023-12-14T07:37:26;11.57;;;6.43;;
82938;SDS011;72714;52.744;4.900;2023-12-14T07:39:51;11.68;;;6.88;;
82938;SDS011;72714;52.744;4.900;2023-12-14T07:42:17;11.00;;;7.10;;
82938;SDS011;72714;52.744;4.900;2023-12-14T07:44:45;11.20;;;6.80;;
82938;SDS011;72714;52.744;4.900;2023-12-14T07:47:11;13.35;;;6.97;;
82938;SDS011;72714;52.744;4.900;2023-12-14T07:49:36;10.93;;;6.32;;
82938;SDS011;72714;52.744;4.900;2023-12-14T07:52:02;11.88;;;6.68;;
82938;SDS011;72714;52.744;4.900;2023-12-14T07:54:28;12.00;;;6.82;;
82938;SDS011;72714;52.744;4.900;2023-12-14T07:56:54;12.50;;;6.35;;
82938;SDS011;72714;52.744;4.900;2023-12-14T07:59:19;10.17;;;6.50;;
82938;SDS011;72714;52.744;4.900;2023-12-14T08:01:46;10.82;;;6.50;;
82938;SDS011;72714;52.744;4.900;2023-12-14T08:04:11;10.90;;;7.03;;
82938;SDS011;72714;52.744;4.900;2023-12-14T08:06:37;12.57;;;6.68;;
82938;SDS011;72714;52.744;4.900;2023-12-14T08:09:04;10.38;;;6.82;;
82938;SDS011;72714;52.744;4.900;2023-12-14T08:11:31;9.35;;;6.40;;
82938;SDS011;72714;52.744;4.900;2023-12-14T08:13:59;10.60;;;6.53;;
82938;SDS011;72714;52.744;4.900;2023-12-14T08:16:24;11.80;;;6.77;;
82938;SDS011;72714;52.744;4.900;2023-12-14T08:18:50;10.13;;;6.23;;
82938;SDS011;72714;52.744;4.900;2023-12-14T08:21:15;10.93;;;6.50;;
82938;SDS011;72714;52.744;4.900;2023-12-14T08:23:41;11.02;;;6.47;;
82938;SDS011;72714;52.744;4.900;2023-12-14T08:26:07;10.85;;;6.65;;
82938;SDS011;72714;52.744;4.900;2023-12-14T08:28:35;9.85;;;6.32;;
82938;SDS011;72714;52.744;4.900;2023-12-14T08:31:00;10.25;;;6.15;;
82938;SDS011;72714;52.744;4.900;2023-12-14T08:33:31;10.05;;;6.63;;
82938;SDS011;72714;52.744;4.900;2023-12-14T08:35:57;10.95;;;6.13;;
82938;SDS011;72714;52.744;4.900;2023-12-14T08:38:22;12.37;;;6.70;;
82938;SDS011;72714;52.744;4.900;2023-12-14T08:40:48;9.87;;;6.47;;
82938;SDS011;72714;52.744;4.900;2023-12-14T08:43:14;10.90;;;7.30;;
82938;SDS011;72714;52.744;4.900;2023-12-14T08:45:39;9.93;;;6.80;;
82938;SDS011;72714;52.744;4.900;2023-12-14T08:48:05;11.40;;;6.90;;
82938;SDS011;72714;52.744;4.900;2023-12-14T08:50:31;11.48;;;7.22;;
82938;SDS011;72714;52.744;4.900;2023-12-14T08:52:56;12.93;;;7.60;;
82938;SDS011;72714;52.744;4.900;2023-12-14T08:55:24;11.38;;;7.60;;
82938;SDS011;72714;52.744;4.900;2023-12-14T08:57:50;12.03;;;7.83;;
82938;SDS011;72714;52.744;4.900;2023-12-14T09:00:16;12.80;;;8.37;;
82938;SDS011;72714;52.744;4.900;2023-12-14T09:02:42;12.33;;;8.30;;
82938;SDS011;72714;52.744;4.900;2023-12-14T09:05:09;13.43;;;8.40;;
82938;SDS011;72714;52.744;4.900;2023-12-14T09:07:34;14.47;;;8.43;;
82938;SDS011;72714;52.744;4.900;2023-12-14T09:10:00;13.00;;;8.50;;
82938;SDS011;72714;52.744;4.900;2023-12-14T09:12:25;11.93;;;7.80;;
82938;SDS011;72714;52.744;4.900;2023-12-14T09:14:51;13.33;;;8.27;;
82938;SDS011;72714;52.744;4.900;2023-12-14T09:17:16;14.23;;;8.07;;
82938;SDS011;72714;52.744;4.900;2023-12-14T09:19:41;12.27;;;8.10;;
82938;SDS011;72714;52.744;4.900;2023-12-14T09:22:07;12.90;;;7.80;;
82938;SDS011;72714;52.744;4.900;2023-12-14T09:24:32;12.48;;;7.47;;
82938;SDS011;72714;52.744;4.900;2023-12-14T09:26:58;12.80;;;7.83;;
82938;SDS011;72714;52.744;4.900;2023-12-14T09:29:23;12.87;;;8.00;;
82938;SDS011;72714;52.744;4.900;2023-12-14T09:31:49;11.85;;;7.60;;
82938;SDS011;72714;52.744;4.900;2023-12-14T09:34:15;12.63;;;8.38;;
82938;SDS011;72714;52.744;4.900;2023-12-14T09:36:42;12.82;;;8.20;;
82938;SDS011;72714;52.744;4.900;2023-12-14T09:39:08;13.73;;;7.70;;
82938;SDS011;72714;52.744;4.900;2023-12-14T09:41:36;13.60;;;8.48;;
82938;SDS011;72714;52.744;4.900;2023-12-14T09:44:04;12.60;;;8.15;;
82938;SDS011;72714;52.744;4.900;2023-12-14T09:46:30;13.43;;;8.37;;
82938;SDS011;72714;52.744;4.900;2023-12-14T09:48:56;13.80;;;8.27;;
82938;SDS011;72714;52.744;4.900;2023-12-14T09:51:23;13.13;;;7.90;;
82938;SDS011;72714;52.744;4.900;2023-12-14T09:53:49;13.40;;;8.27;;
82938;SDS011;72714;52.744;4.900;2023-12-14T09:56:16;13.43;;;7.60;;
82938;SDS011;72714;52.744;4.900;2023-12-14T09:58:41;12.37;;;7.70;;
82938;SDS011;72714;52.744;4.900;2023-12-14T10:03:49;13.88;;;8.00;;
82938;SDS011;72714;52.744;4.900;2023-12-14T10:06:15;14.20;;;8.40;;
82938;SDS011;72714;52.744;4.900;2023-12-14T10:08:40;13.37;;;7.83;;
82938;SDS011;72714;52.744;4.900;2023-12-14T10:11:06;11.33;;;7.50;;
82938;SDS011;72714;52.744;4.900;2023-12-14T10:13:40;14.40;;;8.50;;
82938;SDS011;72714;52.744;4.900;2023-12-14T10:16:07;13.30;;;7.97;;
82938;SDS011;72714;52.744;4.900;2023-12-14T10:18:32;13.40;;;7.90;;
82938;SDS011;72714;52.744;4.900;2023-12-14T10:20:59;15.82;;;7.85;;
82938;SDS011;72714;52.744;4.900;2023-12-14T10:23:26;13.80;;;7.70;;
82938;SDS011;72714;52.744;4.900;2023-12-14T10:25:53;15.13;;;7.60;;
82938;SDS011;72714;52.744;4.900;2023-12-14T10:28:18;12.67;;;7.80;;
82938;SDS011;72714;52.744;4.900;2023-12-14T10:30:44;12.03;;;7.40;;
82938;SDS011;72714;52.744;4.900;2023-12-14T10:33:09;12.85;;;7.60;;
82938;SDS011;72714;52.744;4.900;2023-12-14T10:35:35;13.40;;;7.70;;
82938;SDS011;72714;52.744;4.900;2023-12-14T10:38:02;14.90;;;8.33;;
82938;SDS011;72714;52.744;4.900;2023-12-14T10:40:29;13.02;;;8.07;;
82938;SDS011;72714;52.744;4.900;2023-12-14T10:42:55;13.60;;;8.30;;
82938;SDS011;72714;52.744;4.900;2023-12-14T10:45:26;14.02;;;8.75;;
82938;SDS011;72714;52.744;4.900;2023-12-14T10:47:54;15.93;;;9.20;;
82938;SDS011;72714;52.744;4.900;2023-12-14T10:50:23;16.10;;;8.70;;
82938;SDS011;72714;52.744;4.900;2023-12-14T10:52:49;11.90;;;7.90;;
82938;SDS011;72714;52.744;4.900;2023-12-14T10:55:22;13.70;;;8.03;;
82938;SDS011;72714;52.744;4.900;2023-12-14T10:57:51;14.00;;;8.30;;
82938;SDS011;72714;52.744;4.900;2023-12-14T11:00:18;12.97;;;8.40;;
82938;SDS011;72714;52.744;4.900;2023-12-14T11:02:46;15.07;;;8.93;;
82938;SDS011;72714;52.744;4.900;2023-12-14T11:05:12;13.07;;;8.18;;
82938;SDS011;72714;52.744;4.900;2023-12-14T11:10:20;12.52;;;7.88;;
82938;SDS011;72714;52.744;4.900;2023-12-14T11:15:25;13.13;;;8.20;;
82938;SDS011;72714;52.744;4.900;2023-12-14T11:26:01;11.88;;;7.25;;
82938;SDS011;72714;52.744;4.900;2023-12-14T11:28:29;12.13;;;7.78;;
82938;SDS011;72714;52.744;4.900;2023-12-14T11:30:55;10.93;;;7.22;;
82938;SDS011;72714;52.744;4.900;2023-12-14T11:33:21;13.73;;;7.53;;
82938;SDS011;72714;52.744;4.900;2023-12-14T11:35:47;11.20;;;7.60;;
82938;SDS011;72714;52.744;4.900;2023-12-14T11:38:12;12.10;;;7.10;;
82938;SDS011;72714;52.744;4.900;2023-12-14T11:40:38;11.50;;;7.20;;
82938;SDS011;72714;52.744;4.900;2023-12-14T11:43:05;10.38;;;6.95;;
82938;SDS011;72714;52.744;4.900;2023-12-14T11:45:37;11.00;;;7.23;;
82938;SDS011;72714;52.744;4.900;2023-12-14T11:48:03;12.47;;;7.43;;
82938;SDS011;72714;52.744;4.900;2023-12-14T11:50:34;11.27;;;6.65;;
82938;SDS011;72714;52.744;4.900;2023-12-14T11:53:03;10.65;;;6.60;;
82938;SDS011;72714;52.744;4.900;2023-12-14T11:55:29;11.27;;;7.03;;
82938;SDS011;72714;52.744;4.900;2023-12-14T11:57:56;12.85;;;7.57;;
82938;SDS011;72714;52.744;4.900;2023-12-14T12:00:23;11.00;;;6.82;;
82938;SDS011;72714;52.744;4.900;2023-12-14T12:02:50;10.18;;;7.18;;
82938;SDS011;72714;52.744;4.900;2023-12-14T12:05:16;11.07;;;7.20;;
82938;SDS011;72714;52.744;4.900;2023-12-14T12:07:47;11.27;;;7.53;;
82938;SDS011;72714;52.744;4.900;2023-12-14T12:10:12;10.75;;;6.90;;
82938;SDS011;72714;52.744;4.900;2023-12-14T12:12:38;11.83;;;7.20;;
82938;SDS011;72714;52.744;4.900;2023-12-14T12:15:04;10.17;;;6.93;;
82938;SDS011;72714;52.744;4.900;2023-12-14T12:17:30;11.02;;;6.80;;
82938;SDS011;72714;52.744;4.900;2023-12-14T12:20:02;11.73;;;7.10;;
82938;SDS011;72714;52.744;4.900;2023-12-14T12:22:31;10.80;;;7.00;;
82938;SDS011;72714;52.744;4.900;2023-12-14T12:24:56;10.07;;;6.63;;
82938;SDS011;72714;52.744;4.900;2023-12-14T12:27:23;10.17;;;6.60;;
82938;SDS011;72714;52.744;4.900;2023-12-14T12:29:49;12.60;;;7.20;;
82938;SDS011;72714;52.744;4.900;2023-12-14T12:32:18;12.27;;;7.72;;
82938;SDS011;72714;52.744;4.900;2023-12-14T12:34:44;11.95;;;7.10;;
82938;SDS011;72714;52.744;4.900;2023-12-14T12:37:09;10.80;;;7.30;;
82938;SDS011;72714;52.744;4.900;2023-12-14T12:39:34;13.00;;;8.10;;
82938;SDS011;72714;52.744;4.900;2023-12-14T12:42:00;10.33;;;7.20;;
82938;SDS011;72714;52.744;4.900;2023-12-14T12:44:25;11.00;;;6.83;;
82938;SDS011;72714;52.744;4.900;2023-12-14T12:46:51;10.77;;;7.03;;
82938;SDS011;72714;52.744;4.900;2023-12-14T12:49:22;10.30;;;7.53;;
82938;SDS011;72714;52.744;4.900;2023-12-14T12:51:47;10.25;;;7.30;;
82938;SDS011;72714;52.744;4.900;2023-12-14T12:54:13;13.27;;;7.83;;
82938;SDS011;72714;52.744;4.900;2023-12-14T12:56:38;11.47;;;7.37;;
82938;SDS011;72714;52.744;4.900;2023-12-14T12:59:03;12.60;;;7.50;;
82938;SDS011;72714;52.744;4.900;2023-12-14T13:01:29;11.60;;;7.90;;
82938;SDS011;72714;52.744;4.900;2023-12-14T13:03:55;11.68;;;8.15;;
82938;SDS011;72714;52.744;4.900;2023-12-14T13:06:25;12.00;;;7.93;;
82938;SDS011;72714;52.744;4.900;2023-12-14T13:08:51;12.87;;;8.37;;
82938;SDS011;72714;52.744;4.900;2023-12-14T13:11:16;13.10;;;8.15;;
82938;SDS011;72714;52.744;4.900;2023-12-14T13:13:42;12.68;;;8.27;;
82938;SDS011;72714;52.744;4.900;2023-12-14T13:16:09;13.18;;;8.90;;
82938;SDS011;72714;52.744;4.900;2023-12-14T13:18:35;13.05;;;8.52;;
82938;SDS011;72714;52.744;4.900;2023-12-14T13:21:01;14.37;;;8.93;;
82938;SDS011;72714;52.744;4.900;2023-12-14T13:23:26;12.83;;;8.50;;
82938;SDS011;72714;52.744;4.900;2023-12-14T13:25:52;13.30;;;8.38;;
82938;SDS011;72714;52.744;4.900;2023-12-14T13:28:17;14.73;;;8.87;;
82938;SDS011;72714;52.744;4.900;2023-12-14T13:30:43;14.50;;;8.50;;
82938;SDS011;72714;52.744;4.900;2023-12-14T13:33:08;12.45;;;8.00;;
82938;SDS011;72714;52.744;4.900;2023-12-14T13:35:37;14.80;;;9.15;;
82938;SDS011;72714;52.744;4.900;2023-12-14T13:38:02;13.73;;;8.77;;
82938;SDS011;72714;52.744;4.900;2023-12-14T13:40:28;12.83;;;8.33;;
82938;SDS011;72714;52.744;4.900;2023-12-14T13:42:53;12.10;;;7.97;;
82938;SDS011;72714;52.744;4.900;2023-12-14T13:45:19;12.48;;;8.25;;
82938;SDS011;72714;52.744;4.900;2023-12-14T13:47:45;13.20;;;8.30;;
82938;SDS011;72714;52.744;4.900;2023-12-14T13:50:10;13.57;;;8.50;;
82938;SDS011;72714;52.744;4.900;2023-12-14T13:52:36;14.00;;;8.50;;
82938;SDS011;72714;52.744;4.900;2023-12-14T13:55:01;14.07;;;8.40;;
82938;SDS011;72714;52.744;4.900;2023-12-14T13:57:27;12.17;;;7.90;;
82938;SDS011;72714;52.744;4.900;2023-12-14T13:59:52;12.10;;;7.60;;
82938;SDS011;72714;52.744;4.900;2023-12-14T14:02:18;12.33;;;7.67;;
82938;SDS011;72714;52.744;4.900;2023-12-14T14:04:44;12.13;;;6.32;;
82938;SDS011;72714;52.744;4.900;2023-12-14T14:07:10;12.53;;;6.20;;
82938;SDS011;72714;52.744;4.900;2023-12-14T14:09:35;11.03;;;5.93;;
82938;SDS011;72714;52.744;4.900;2023-12-14T14:12:02;10.00;;;5.20;;
82938;SDS011;72714;52.744;4.900;2023-12-14T14:14:29;9.57;;;4.70;;
82938;SDS011;72714;52.744;4.900;2023-12-14T14:16:54;12.07;;;4.80;;
82938;SDS011;72714;52.744;4.900;2023-12-14T14:19:20;9.97;;;4.50;;
82938;SDS011;72714;52.744;4.900;2023-12-14T14:21:45;8.15;;;4.30;;
82938;SDS011;72714;52.744;4.900;2023-12-14T14:24:11;11.93;;;4.80;;
82938;SDS011;72714;52.744;4.900;2023-12-14T14:26:36;10.03;;;4.67;;
82938;SDS011;72714;52.744;4.900;2023-12-14T14:29:02;8.63;;;4.73;;
82938;SDS011;72714;52.744;4.900;2023-12-14T14:31:28;11.32;;;4.60;;
82938;SDS011;72714;52.744;4.900;2023-12-14T14:33:57;11.18;;;4.80;;
82938;SDS011;72714;52.744;4.900;2023-12-14T14:36:26;9.52;;;4.78;;
82938;SDS011;72714;52.744;4.900;2023-12-14T14:38:51;8.80;;;4.43;;
82938;SDS011;72714;52.744;4.900;2023-12-14T14:41:19;10.75;;;4.72;;
82938;SDS011;72714;52.744;4.900;2023-12-14T14:43:45;9.50;;;4.78;;
82938;SDS011;72714;52.744;4.900;2023-12-14T14:46:10;8.77;;;4.80;;
82938;SDS011;72714;52.744;4.900;2023-12-14T14:48:36;10.30;;;5.07;;